sensor_id;sensor_type;location;lat;lon;timestamp;pressure;altitude;pressure_sealevel;temperature;humidity
68230;BME280;55048;52.220;5.160;2022-08-18T00:02:26;101238.16;;;21.24;80.28
68230;BME280;55048;52.220;5.160;2022-08-18T00:04:53;101230.53;;;21.12;80.33
68230;BME280;55048;52.220;5.160;2022-08-18T00:07:28;101247.25;;;21.14;80.21
68230;BME280;55048;52.220;5.160;2022-08-18T00:09:54;101178.16;;;20.76;80.09
68230;BME280;55048;52.220;5.160;2022-08-18T00:12:24;101231.41;;;21.08;80.24
68230;BME280;55048;52.220;5.160;2022-08-18T00:14:51;101219.06;;;21.02;80.08
68230;BME280;55048;52.220;5.160;2022-08-18T00:17:18;101229.22;;;21.10;80.14
68230;BME280;55048;52.220;5.160;2022-08-18T00:19:44;101216.38;;;21.02;80.18
68230;BME280;55048;52.220;5.160;2022-08-18T00:22:10;101218.78;;;21.03;80.33
68230;BME280;55048;52.220;5.160;2022-08-18T00:24:36;101129.59;;;20.38;80.53
68230;BME280;55048;52.220;5.160;2022-08-18T00:27:03;101201.31;;;20.82;80.99
68230;BME280;55048;52.220;5.160;2022-08-18T00:29:30;101211.03;;;20.97;80.74
68230;BME280;55048;52.220;5.160;2022-08-18T00:31:56;101211.84;;;20.97;81.07
68230;BME280;55048;52.220;5.160;2022-08-18T00:34:21;101180.34;;;20.74;80.76
68230;BME280;55048;52.220;5.160;2022-08-18T00:36:46;101198.91;;;20.80;80.98
68230;BME280;55048;52.220;5.160;2022-08-18T00:39:12;101177.59;;;20.60;80.83
68230;BME280;55048;52.220;5.160;2022-08-18T00:41:37;101222.53;;;20.88;80.68
68230;BME280;55048;52.220;5.160;2022-08-18T00:44:03;101229.56;;;20.89;81.05
68230;BME280;55048;52.220;5.160;2022-08-18T00:46:35;101199.03;;;20.70;80.99
68230;BME280;55048;52.220;5.160;2022-08-18T00:49:01;101212.91;;;20.82;80.83
68230;BME280;55048;52.220;5.160;2022-08-18T00:51:34;101204.09;;;20.77;81.00
68230;BME280;55048;52.220;5.160;2022-08-18T00:54:05;101222.34;;;20.85;80.65
68230;BME280;55048;52.220;5.160;2022-08-18T00:56:37;101216.13;;;20.84;80.80
68230;BME280;55048;52.220;5.160;2022-08-18T01:01:53;101198.47;;;20.73;80.39
68230;BME280;55048;52.220;5.160;2022-08-18T01:04:32;101225.53;;;20.87;80.70
68230;BME280;55048;52.220;5.160;2022-08-18T01:07:04;101229.84;;;20.88;80.41
68230;BME280;55048;52.220;5.160;2022-08-18T01:09:31;101225.19;;;20.75;80.21
68230;BME280;55048;52.220;5.160;2022-08-18T01:11:56;101237.81;;;20.79;80.11
68230;BME280;55048;52.220;5.160;2022-08-18T01:14:22;101241.94;;;20.77;80.35
68230;BME280;55048;52.220;5.160;2022-08-18T01:16:49;101234.19;;;20.70;80.38
68230;BME280;55048;52.220;5.160;2022-08-18T01:19:34;101163.31;;;20.22;80.31
68230;BME280;55048;52.220;5.160;2022-08-18T01:22:28;101243.56;;;20.59;81.00
68230;BME280;55048;52.220;5.160;2022-08-18T01:24:56;101220.31;;;20.39;80.91
68230;BME280;55048;52.220;5.160;2022-08-18T01:27:41;101225.72;;;20.39;81.15
68230;BME280;55048;52.220;5.160;2022-08-18T01:30:10;101233.53;;;20.41;81.51
68230;BME280;55048;52.220;5.160;2022-08-18T01:32:37;101249.16;;;20.44;81.40
68230;BME280;55048;52.220;5.160;2022-08-18T01:35:04;101201.84;;;20.08;81.65
68230;BME280;55048;52.220;5.160;2022-08-18T01:37:32;101243.31;;;20.36;81.48
68230;BME280;55048;52.220;5.160;2022-08-18T01:39:58;101224.63;;;20.21;81.96
68230;BME280;55048;52.220;5.160;2022-08-18T01:42:23;101218.13;;;20.22;81.80
68230;BME280;55048;52.220;5.160;2022-08-18T01:44:49;101241.22;;;20.33;81.07
68230;BME280;55048;52.220;5.160;2022-08-18T01:47:16;101215.06;;;20.10;81.61
68230;BME280;55048;52.220;5.160;2022-08-18T01:49:42;101248.22;;;20.34;81.75
68230;BME280;55048;52.220;5.160;2022-08-18T01:52:10;101247.03;;;20.41;81.71
68230;BME280;55048;52.220;5.160;2022-08-18T01:54:38;101242.44;;;20.41;81.23
68230;BME280;55048;52.220;5.160;2022-08-18T01:57:05;101240.53;;;20.42;81.05
68230;BME280;55048;52.220;5.160;2022-08-18T01:59:30;101205.00;;;20.16;81.12
68230;BME280;55048;52.220;5.160;2022-08-18T02:01:55;101217.78;;;20.29;80.90
68230;BME280;55048;52.220;5.160;2022-08-18T02:04:28;101203.31;;;20.20;80.75
68230;BME280;55048;52.220;5.160;2022-08-18T02:06:58;101247.03;;;20.41;80.77
68230;BME280;55048;52.220;5.160;2022-08-18T02:09:23;101220.09;;;20.17;80.69
68230;BME280;55048;52.220;5.160;2022-08-18T02:11:49;101223.59;;;20.17;80.45
68230;BME280;55048;52.220;5.160;2022-08-18T02:14:14;101241.06;;;20.25;80.67
68230;BME280;55048;52.220;5.160;2022-08-18T02:16:39;101227.41;;;20.16;80.34
68230;BME280;55048;52.220;5.160;2022-08-18T02:19:05;101260.63;;;20.35;80.24
68230;BME280;55048;52.220;5.160;2022-08-18T02:21:30;101256.47;;;20.24;80.52
68230;BME280;55048;52.220;5.160;2022-08-18T02:23:55;101249.72;;;20.22;80.44
68230;BME280;55048;52.220;5.160;2022-08-18T02:26:21;101268.50;;;20.32;81.06
68230;BME280;55048;52.220;5.160;2022-08-18T02:28:48;101246.59;;;20.15;80.82
68230;BME280;55048;52.220;5.160;2022-08-18T02:31:20;101254.75;;;20.28;80.89
68230;BME280;55048;52.220;5.160;2022-08-18T02:33:46;101245.06;;;20.27;80.79
68230;BME280;55048;52.220;5.160;2022-08-18T02:36:12;101239.97;;;20.26;80.87
68230;BME280;55048;52.220;5.160;2022-08-18T02:38:39;101257.34;;;20.38;80.51
68230;BME280;55048;52.220;5.160;2022-08-18T02:41:06;101219.88;;;20.13;81.00
68230;BME280;55048;52.220;5.160;2022-08-18T02:43:33;101237.56;;;20.24;80.87
68230;BME280;55048;52.220;5.160;2022-08-18T02:45:59;101228.66;;;20.24;80.95
68230;BME280;55048;52.220;5.160;2022-08-18T02:48:25;101244.19;;;20.32;80.56
68230;BME280;55048;52.220;5.160;2022-08-18T02:51:02;101238.34;;;20.25;80.76
68230;BME280;55048;52.220;5.160;2022-08-18T02:53:29;101205.78;;;19.97;80.74
68230;BME280;55048;52.220;5.160;2022-08-18T02:55:55;101263.78;;;20.43;80.75
68230;BME280;55048;52.220;5.160;2022-08-18T02:58:28;101253.75;;;20.24;80.93
68230;BME280;55048;52.220;5.160;2022-08-18T03:00:54;101260.38;;;20.32;80.77
68230;BME280;55048;52.220;5.160;2022-08-18T03:03:19;101242.72;;;20.21;81.12
68230;BME280;55048;52.220;5.160;2022-08-18T03:05:44;101263.88;;;20.32;81.14
68230;BME280;55048;52.220;5.160;2022-08-18T03:08:10;101255.13;;;20.22;80.92
68230;BME280;55048;52.220;5.160;2022-08-18T03:10:35;101277.13;;;20.34;81.33
68230;BME280;55048;52.220;5.160;2022-08-18T03:13:01;101260.91;;;20.15;81.32
68230;BME280;55048;52.220;5.160;2022-08-18T03:15:27;101264.63;;;20.19;81.41
68230;BME280;55048;52.220;5.160;2022-08-18T03:17:53;101259.88;;;20.11;81.31
68230;BME280;55048;52.220;5.160;2022-08-18T03:20:19;101262.50;;;20.16;81.06
68230;BME280;55048;52.220;5.160;2022-08-18T03:22:44;101284.78;;;20.27;81.11
68230;BME280;55048;52.220;5.160;2022-08-18T03:25:09;101261.25;;;20.08;81.53
68230;BME280;55048;52.220;5.160;2022-08-18T03:27:35;101284.69;;;20.13;81.52
68230;BME280;55048;52.220;5.160;2022-08-18T03:30:00;101277.97;;;20.10;81.47
68230;BME280;55048;52.220;5.160;2022-08-18T03:32:26;101271.81;;;20.05;81.54
68230;BME280;55048;52.220;5.160;2022-08-18T03:34:52;101268.59;;;20.03;81.75
68230;BME280;55048;52.220;5.160;2022-08-18T03:37:17;101262.03;;;20.09;81.61
68230;BME280;55048;52.220;5.160;2022-08-18T03:39:42;101257.31;;;20.01;81.65
68230;BME280;55048;52.220;5.160;2022-08-18T03:42:08;101276.81;;;20.17;81.19
68230;BME280;55048;52.220;5.160;2022-08-18T03:44:34;101269.81;;;20.16;81.37
68230;BME280;55048;52.220;5.160;2022-08-18T03:47:06;101268.19;;;20.15;81.67
68230;BME280;55048;52.220;5.160;2022-08-18T03:49:32;101281.91;;;20.18;81.85
68230;BME280;55048;52.220;5.160;2022-08-18T03:51:58;101282.66;;;20.24;81.54
68230;BME280;55048;52.220;5.160;2022-08-18T03:54:24;101252.47;;;19.98;82.02
68230;BME280;55048;52.220;5.160;2022-08-18T03:56:50;101302.38;;;20.24;82.07
68230;BME280;55048;52.220;5.160;2022-08-18T03:59:19;101298.34;;;20.22;82.35
68230;BME280;55048;52.220;5.160;2022-08-18T04:01:46;101282.84;;;20.08;82.27
68230;BME280;55048;52.220;5.160;2022-08-18T04:04:15;101291.56;;;20.24;82.30
68230;BME280;55048;52.220;5.160;2022-08-18T04:06:44;101271.47;;;20.11;82.34
68230;BME280;55048;52.220;5.160;2022-08-18T04:09:12;101293.75;;;20.22;82.60
68230;BME280;55048;52.220;5.160;2022-08-18T04:11:39;101289.94;;;20.23;82.23
68230;BME280;55048;52.220;5.160;2022-08-18T04:14:13;101286.44;;;20.23;82.45
68230;BME280;55048;52.220;5.160;2022-08-18T04:16:40;101281.09;;;20.18;82.52
68230;BME280;55048;52.220;5.160;2022-08-18T04:19:06;101232.63;;;19.88;82.64
68230;BME280;55048;52.220;5.160;2022-08-18T04:21:38;101276.75;;;20.22;82.83
68230;BME280;55048;52.220;5.160;2022-08-18T04:24:04;101276.25;;;20.20;82.54
68230;BME280;55048;52.220;5.160;2022-08-18T04:26:32;101235.81;;;19.91;82.69
68230;BME280;55048;52.220;5.160;2022-08-18T04:28:58;101276.72;;;20.03;82.77
68230;BME280;55048;52.220;5.160;2022-08-18T04:31:29;101284.50;;;20.04;83.33
68230;BME280;55048;52.220;5.160;2022-08-18T04:33:56;101260.97;;;19.86;83.29
68230;BME280;55048;52.220;5.160;2022-08-18T04:36:23;101261.28;;;19.84;83.12
68230;BME280;55048;52.220;5.160;2022-08-18T04:38:48;101278.06;;;20.00;83.01
68230;BME280;55048;52.220;5.160;2022-08-18T04:41:14;101165.25;;;19.30;82.87
68230;BME280;55048;52.220;5.160;2022-08-18T04:43:40;101278.38;;;19.99;82.81
68230;BME280;55048;52.220;5.160;2022-08-18T04:46:05;101259.66;;;19.83;83.21
68230;BME280;55048;52.220;5.160;2022-08-18T04:48:33;101246.25;;;19.78;83.01
68230;BME280;55048;52.220;5.160;2022-08-18T04:53:30;101266.72;;;19.79;83.08
68230;BME280;55048;52.220;5.160;2022-08-18T04:56:41;101285.06;;;19.82;83.24
68230;BME280;55048;52.220;5.160;2022-08-18T04:59:10;101277.47;;;19.84;82.67
68230;BME280;55048;52.220;5.160;2022-08-18T05:01:39;101257.66;;;19.70;82.75
68230;BME280;55048;52.220;5.160;2022-08-18T05:04:05;101252.38;;;19.60;82.54
68230;BME280;55048;52.220;5.160;2022-08-18T05:06:31;101282.63;;;19.81;82.79
68230;BME280;55048;52.220;5.160;2022-08-18T05:09:01;101295.78;;;19.87;82.68
68230;BME280;55048;52.220;5.160;2022-08-18T05:11:29;101294.41;;;19.90;82.90
68230;BME280;55048;52.220;5.160;2022-08-18T05:13:57;101299.75;;;19.95;82.97
68230;BME280;55048;52.220;5.160;2022-08-18T05:16:24;101290.56;;;19.96;82.29
68230;BME280;55048;52.220;5.160;2022-08-18T05:18:50;101258.13;;;19.77;82.25
68230;BME280;55048;52.220;5.160;2022-08-18T05:21:18;101302.09;;;20.02;82.33
68230;BME280;55048;52.220;5.160;2022-08-18T05:23:45;101280.63;;;19.92;82.27
68230;BME280;55048;52.220;5.160;2022-08-18T05:26:12;101280.91;;;19.90;82.10
68230;BME280;55048;52.220;5.160;2022-08-18T05:28:39;101275.75;;;19.94;81.88
68230;BME280;55048;52.220;5.160;2022-08-18T05:31:15;101299.03;;;20.08;81.82
68230;BME280;55048;52.220;5.160;2022-08-18T05:33:41;101293.88;;;20.12;82.10
68230;BME280;55048;52.220;5.160;2022-08-18T05:36:34;101298.19;;;20.13;82.16
68230;BME280;55048;52.220;5.160;2022-08-18T05:41:38;101293.25;;;20.20;81.62
68230;BME280;55048;52.220;5.160;2022-08-18T05:44:06;101266.72;;;20.03;81.82
68230;BME280;55048;52.220;5.160;2022-08-18T05:46:46;101279.50;;;20.17;81.61
68230;BME280;55048;52.220;5.160;2022-08-18T05:49:13;101298.50;;;20.30;81.59
68230;BME280;55048;52.220;5.160;2022-08-18T05:51:45;101284.69;;;20.32;81.57
68230;BME280;55048;52.220;5.160;2022-08-18T05:54:12;101292.38;;;20.44;81.80
68230;BME280;55048;52.220;5.160;2022-08-18T05:57:03;101271.41;;;20.35;81.65
68230;BME280;55048;52.220;5.160;2022-08-18T05:59:32;101291.09;;;20.60;81.43
68230;BME280;55048;52.220;5.160;2022-08-18T06:02:14;101297.34;;;20.93;80.88
68230;BME280;55048;52.220;5.160;2022-08-18T06:08:02;101283.03;;;21.72;78.63
68230;BME280;55048;52.220;5.160;2022-08-18T06:10:05;101291.84;;;22.19;77.59
68230;BME280;55048;52.220;5.160;2022-08-18T06:12:34;101294.75;;;22.36;76.44
68230;BME280;55048;52.220;5.160;2022-08-18T06:18:24;101286.34;;;22.60;75.24
68230;BME280;55048;52.220;5.160;2022-08-18T06:20:56;101288.66;;;22.66;75.18
68230;BME280;55048;52.220;5.160;2022-08-18T06:26:19;101287.28;;;22.41;75.88
68230;BME280;55048;52.220;5.160;2022-08-18T06:29:02;101290.91;;;22.37;76.04
68230;BME280;55048;52.220;5.160;2022-08-18T06:31:48;101274.19;;;22.35;75.81
68230;BME280;55048;52.220;5.160;2022-08-18T06:37:15;101292.44;;;22.65;75.45
68230;BME280;55048;52.220;5.160;2022-08-18T06:39:45;101282.03;;;22.59;75.15
68230;BME280;55048;52.220;5.160;2022-08-18T06:42:11;101292.94;;;22.67;75.10
68230;BME280;55048;52.220;5.160;2022-08-18T06:44:41;101285.84;;;22.58;75.19
68230;BME280;55048;52.220;5.160;2022-08-18T06:50:01;101295.28;;;22.60;75.50
68230;BME280;55048;52.220;5.160;2022-08-18T06:52:30;101305.41;;;22.69;75.18
68230;BME280;55048;52.220;5.160;2022-08-18T06:55:08;101301.38;;;22.66;75.49
68230;BME280;55048;52.220;5.160;2022-08-18T06:57:52;101309.09;;;22.73;75.04
68230;BME280;55048;52.220;5.160;2022-08-18T07:02:49;101316.00;;;22.79;74.34
68230;BME280;55048;52.220;5.160;2022-08-18T07:05:27;101313.41;;;22.74;73.90
68230;BME280;55048;52.220;5.160;2022-08-18T07:08:22;101314.47;;;22.86;73.88
68230;BME280;55048;52.220;5.160;2022-08-18T07:10:54;101296.59;;;22.85;73.67
68230;BME280;55048;52.220;5.160;2022-08-18T07:13:27;101312.84;;;22.99;73.73
68230;BME280;55048;52.220;5.160;2022-08-18T07:16:00;101307.72;;;22.98;73.36
68230;BME280;55048;52.220;5.160;2022-08-18T07:18:38;101305.50;;;23.00;73.11
68230;BME280;55048;52.220;5.160;2022-08-18T07:21:04;101306.59;;;22.99;72.98
68230;BME280;55048;52.220;5.160;2022-08-18T07:23:38;101333.19;;;23.10;72.89
68230;BME280;55048;52.220;5.160;2022-08-18T07:26:13;101326.38;;;23.22;72.64
68230;BME280;55048;52.220;5.160;2022-08-18T07:28:45;101316.84;;;23.24;71.98
68230;BME280;55048;52.220;5.160;2022-08-18T07:33:57;101333.97;;;23.33;71.98
68230;BME280;55048;52.220;5.160;2022-08-18T07:36:26;101324.81;;;23.52;71.47
68230;BME280;55048;52.220;5.160;2022-08-18T07:39:02;101331.31;;;23.73;71.00
68230;BME280;55048;52.220;5.160;2022-08-18T07:41:33;101311.38;;;23.47;70.71
68230;BME280;55048;52.220;5.160;2022-08-18T07:45:05;101335.03;;;23.55;71.05
68230;BME280;55048;52.220;5.160;2022-08-18T07:47:17;101337.75;;;23.55;70.89
68230;BME280;55048;52.220;5.160;2022-08-18T07:49:45;101339.28;;;23.38;70.57
68230;BME280;55048;52.220;5.160;2022-08-18T08:00:22;101352.84;;;24.40;68.35
68230;BME280;55048;52.220;5.160;2022-08-18T08:02:55;101336.84;;;24.48;67.42
68230;BME280;55048;52.220;5.160;2022-08-18T08:05:52;101352.53;;;24.59;67.18
68230;BME280;55048;52.220;5.160;2022-08-18T08:19:01;101346.38;;;23.26;70.97
68230;BME280;55048;52.220;5.160;2022-08-18T08:21:31;101335.97;;;22.97;71.39
68230;BME280;55048;52.220;5.160;2022-08-18T08:24:12;101349.19;;;22.98;71.66
68230;BME280;55048;52.220;5.160;2022-08-18T08:27:02;101357.78;;;23.36;71.08
68230;BME280;55048;52.220;5.160;2022-08-18T08:29:38;101367.13;;;23.75;69.70
68230;BME280;55048;52.220;5.160;2022-08-18T08:32:15;101361.81;;;24.10;68.50
68230;BME280;55048;52.220;5.160;2022-08-18T08:34:58;101331.22;;;24.35;67.58
68230;BME280;55048;52.220;5.160;2022-08-18T08:37:53;101348.81;;;24.38;65.40
68230;BME280;55048;52.220;5.160;2022-08-18T08:40:28;101347.16;;;24.11;65.59
68230;BME280;55048;52.220;5.160;2022-08-18T08:43:13;101350.66;;;24.20;65.91
68230;BME280;55048;52.220;5.160;2022-08-18T08:46:03;101349.97;;;24.46;64.76
68230;BME280;55048;52.220;5.160;2022-08-18T08:48:36;101340.06;;;24.67;64.07
68230;BME280;55048;52.220;5.160;2022-08-18T08:53:51;101332.25;;;25.09;63.42
68230;BME280;55048;52.220;5.160;2022-08-18T08:56:20;101341.00;;;25.32;62.83
68230;BME280;55048;52.220;5.160;2022-08-18T08:58:57;101342.91;;;25.31;62.90
68230;BME280;55048;52.220;5.160;2022-08-18T09:01:39;101343.53;;;25.45;61.61
68230;BME280;55048;52.220;5.160;2022-08-18T09:13:23;101340.72;;;25.16;62.31
68230;BME280;55048;52.220;5.160;2022-08-18T09:16:14;101325.66;;;24.49;63.03
68230;BME280;55048;52.220;5.160;2022-08-18T09:24:29;101353.97;;;24.39;65.19
68230;BME280;55048;52.220;5.160;2022-08-18T09:35:12;101358.47;;;23.73;67.33
68230;BME280;55048;52.220;5.160;2022-08-18T09:40:49;101357.75;;;23.59;67.73
68230;BME280;55048;52.220;5.160;2022-08-18T09:43:53;101352.69;;;23.97;66.75
68230;BME280;55048;52.220;5.160;2022-08-18T09:51:57;101365.66;;;25.27;62.79
68230;BME280;55048;52.220;5.160;2022-08-18T09:54:31;101346.91;;;25.51;61.98
68230;BME280;55048;52.220;5.160;2022-08-18T09:57:13;101359.34;;;25.61;60.27
68230;BME280;55048;52.220;5.160;2022-08-18T10:07:51;101353.16;;;25.99;58.66
68230;BME280;55048;52.220;5.160;2022-08-18T10:10:26;101334.78;;;26.16;58.25
68230;BME280;55048;52.220;5.160;2022-08-18T10:13:23;101330.00;;;26.34;56.89
68230;BME280;55048;52.220;5.160;2022-08-18T10:18:55;101333.44;;;26.73;55.66
68230;BME280;55048;52.220;5.160;2022-08-18T10:21:26;101321.81;;;26.97;56.56
68230;BME280;55048;52.220;5.160;2022-08-18T10:23:56;101331.97;;;27.30;56.50
68230;BME280;55048;52.220;5.160;2022-08-18T10:28:59;101330.81;;;26.35;57.48
68230;BME280;55048;52.220;5.160;2022-08-18T10:31:27;101326.44;;;25.83;58.93
68230;BME280;55048;52.220;5.160;2022-08-18T10:39:20;101320.88;;;24.72;61.35
68230;BME280;55048;52.220;5.160;2022-08-18T10:41:56;101324.22;;;24.52;61.14
68230;BME280;55048;52.220;5.160;2022-08-18T10:44:22;101310.31;;;24.45;61.26
68230;BME280;55048;52.220;5.160;2022-08-18T10:46:50;101332.38;;;24.52;61.42
68230;BME280;55048;52.220;5.160;2022-08-18T10:49:25;101319.25;;;24.88;60.74
68230;BME280;55048;52.220;5.160;2022-08-18T10:55:08;101327.34;;;26.26;57.31
68230;BME280;55048;52.220;5.160;2022-08-18T11:00:12;101336.25;;;26.35;56.56
68230;BME280;55048;52.220;5.160;2022-08-18T11:03:07;101336.47;;;26.00;58.21
68230;BME280;55048;52.220;5.160;2022-08-18T11:05:35;101323.81;;;25.49;58.61
68230;BME280;55048;52.220;5.160;2022-08-18T11:08:06;101322.91;;;25.27;59.59
68230;BME280;55048;52.220;5.160;2022-08-18T11:10:42;101341.97;;;25.27;60.24
68230;BME280;55048;52.220;5.160;2022-08-18T11:19:03;101328.38;;;25.18;60.06
68230;BME280;55048;52.220;5.160;2022-08-18T11:26:39;101321.81;;;25.84;58.88
68230;BME280;55048;52.220;5.160;2022-08-18T11:29:40;101335.63;;;26.08;58.83
68230;BME280;55048;52.220;5.160;2022-08-18T11:37:04;101325.31;;;26.14;57.64
68230;BME280;55048;52.220;5.160;2022-08-18T11:39:30;101315.34;;;26.39;57.36
68230;BME280;55048;52.220;5.160;2022-08-18T11:41:57;101312.84;;;26.76;56.46
68230;BME280;55048;52.220;5.160;2022-08-18T11:44:25;101329.66;;;26.99;56.70
68230;BME280;55048;52.220;5.160;2022-08-18T11:47:08;101300.97;;;26.59;55.57
68230;BME280;55048;52.220;5.160;2022-08-18T11:49:47;101316.41;;;26.55;56.73
68230;BME280;55048;52.220;5.160;2022-08-18T11:52:17;101324.19;;;26.44;56.67
68230;BME280;55048;52.220;5.160;2022-08-18T11:54:47;101308.44;;;26.20;56.94
68230;BME280;55048;52.220;5.160;2022-08-18T11:57:50;101318.16;;;26.01;57.76
68230;BME280;55048;52.220;5.160;2022-08-18T12:03:48;101307.28;;;26.01;58.69
68230;BME280;55048;52.220;5.160;2022-08-18T12:05:52;101279.31;;;25.83;58.90
68230;BME280;55048;52.220;5.160;2022-08-18T12:08:22;101297.34;;;25.96;59.27
68230;BME280;55048;52.220;5.160;2022-08-18T12:11:01;101288.94;;;26.10;59.49
68230;BME280;55048;52.220;5.160;2022-08-18T12:13:28;101271.00;;;26.09;58.46
68230;BME280;55048;52.220;5.160;2022-08-18T12:16:10;101300.94;;;26.38;58.86
68230;BME280;55048;52.220;5.160;2022-08-18T12:18:37;101287.94;;;26.44;58.42
68230;BME280;55048;52.220;5.160;2022-08-18T12:21:02;101278.56;;;26.54;57.64
68230;BME280;55048;52.220;5.160;2022-08-18T12:23:28;101286.97;;;26.40;57.39
68230;BME280;55048;52.220;5.160;2022-08-18T12:25:53;101289.72;;;26.40;57.02
68230;BME280;55048;52.220;5.160;2022-08-18T12:28:19;101279.44;;;26.45;56.54
68230;BME280;55048;52.220;5.160;2022-08-18T12:30:45;101276.94;;;26.53;56.34
68230;BME280;55048;52.220;5.160;2022-08-18T12:33:10;101290.06;;;26.59;56.95
68230;BME280;55048;52.220;5.160;2022-08-18T12:35:36;101277.09;;;26.56;56.40
68230;BME280;55048;52.220;5.160;2022-08-18T12:38:01;101292.66;;;26.77;55.61
68230;BME280;55048;52.220;5.160;2022-08-18T12:40:27;101292.03;;;27.04;55.07
68230;BME280;55048;52.220;5.160;2022-08-18T12:42:52;101289.19;;;27.34;54.62
68230;BME280;55048;52.220;5.160;2022-08-18T12:45:17;101274.03;;;27.24;54.93
68230;BME280;55048;52.220;5.160;2022-08-18T12:47:43;101256.44;;;27.01;55.05
68230;BME280;55048;52.220;5.160;2022-08-18T12:50:08;101274.06;;;27.03;54.49
68230;BME280;55048;52.220;5.160;2022-08-18T12:52:34;101281.00;;;27.01;55.13
68230;BME280;55048;52.220;5.160;2022-08-18T12:54:59;101258.97;;;26.73;54.83
68230;BME280;55048;52.220;5.160;2022-08-18T12:57:26;101269.00;;;26.81;54.86
68230;BME280;55048;52.220;5.160;2022-08-18T12:59:52;101291.59;;;27.02;54.34
68230;BME280;55048;52.220;5.160;2022-08-18T13:02:19;101286.72;;;27.08;54.41
68230;BME280;55048;52.220;5.160;2022-08-18T13:04:45;101288.09;;;27.14;54.52
68230;BME280;55048;52.220;5.160;2022-08-18T13:07:12;101295.97;;;27.15;54.19
68230;BME280;55048;52.220;5.160;2022-08-18T13:09:40;101265.03;;;26.78;54.20
68230;BME280;55048;52.220;5.160;2022-08-18T13:12:06;101264.31;;;26.69;54.40
68230;BME280;55048;52.220;5.160;2022-08-18T13:14:32;101284.31;;;26.73;54.46
68230;BME280;55048;52.220;5.160;2022-08-18T13:16:57;101280.66;;;26.69;55.35
68230;BME280;55048;52.220;5.160;2022-08-18T13:19:23;101275.63;;;26.59;55.54
68230;BME280;55048;52.220;5.160;2022-08-18T13:21:48;101276.09;;;26.61;55.62
68230;BME280;55048;52.220;5.160;2022-08-18T13:24:14;101286.84;;;26.57;55.62
68230;BME280;55048;52.220;5.160;2022-08-18T13:26:42;101296.84;;;26.53;55.49
68230;BME280;55048;52.220;5.160;2022-08-18T13:29:08;101279.91;;;26.39;55.76
68230;BME280;55048;52.220;5.160;2022-08-18T13:31:34;101277.84;;;26.44;55.96
68230;BME280;55048;52.220;5.160;2022-08-18T13:33:59;101260.38;;;26.37;55.94
68230;BME280;55048;52.220;5.160;2022-08-18T13:36:26;101306.59;;;26.75;55.60
68230;BME280;55048;52.220;5.160;2022-08-18T13:39:09;101290.00;;;26.68;55.92
68230;BME280;55048;52.220;5.160;2022-08-18T13:41:35;101316.16;;;26.81;55.77
68230;BME280;55048;52.220;5.160;2022-08-18T13:44:00;101309.88;;;26.68;55.94
68230;BME280;55048;52.220;5.160;2022-08-18T13:46:26;101314.56;;;26.68;56.31
68230;BME280;55048;52.220;5.160;2022-08-18T13:48:51;101328.50;;;26.66;56.14
68230;BME280;55048;52.220;5.160;2022-08-18T13:51:21;101321.72;;;26.52;55.85
68230;BME280;55048;52.220;5.160;2022-08-18T13:53:47;101321.13;;;26.46;55.89
68230;BME280;55048;52.220;5.160;2022-08-18T13:56:13;101297.66;;;26.24;55.85
68230;BME280;55048;52.220;5.160;2022-08-18T13:58:39;101294.72;;;26.08;55.95
68230;BME280;55048;52.220;5.160;2022-08-18T14:01:06;101319.22;;;26.17;56.26
68230;BME280;55048;52.220;5.160;2022-08-18T14:03:32;101290.59;;;26.02;56.07
68230;BME280;55048;52.220;5.160;2022-08-18T14:05:59;101326.84;;;26.24;56.12
68230;BME280;55048;52.220;5.160;2022-08-18T14:08:27;101330.66;;;26.31;55.98
68230;BME280;55048;52.220;5.160;2022-08-18T14:10:57;101292.00;;;26.08;56.39
68230;BME280;55048;52.220;5.160;2022-08-18T14:13:24;101330.00;;;26.34;56.40
68230;BME280;55048;52.220;5.160;2022-08-18T14:15:51;101294.09;;;26.11;56.19
68230;BME280;55048;52.220;5.160;2022-08-18T14:18:17;101287.69;;;26.07;56.49
68230;BME280;55048;52.220;5.160;2022-08-18T14:20:43;101297.25;;;26.13;56.28
68230;BME280;55048;52.220;5.160;2022-08-18T14:23:27;101287.69;;;26.07;56.43
68230;BME280;55048;52.220;5.160;2022-08-18T14:26:10;101297.47;;;26.08;56.90
68230;BME280;55048;52.220;5.160;2022-08-18T14:28:55;101313.28;;;26.15;57.01
68230;BME280;55048;52.220;5.160;2022-08-18T14:31:21;101289.53;;;25.94;56.93
68230;BME280;55048;52.220;5.160;2022-08-18T14:33:47;101314.94;;;26.07;56.96
68230;BME280;55048;52.220;5.160;2022-08-18T14:36:12;101314.81;;;26.04;57.08
68230;BME280;55048;52.220;5.160;2022-08-18T14:38:39;101318.16;;;26.01;57.30
68230;BME280;55048;52.220;5.160;2022-08-18T14:41:07;101323.16;;;25.99;57.51
68230;BME280;55048;52.220;5.160;2022-08-18T14:43:34;101324.94;;;25.94;57.71
68230;BME280;55048;52.220;5.160;2022-08-18T14:46:03;101316.97;;;25.89;58.04
68230;BME280;55048;52.220;5.160;2022-08-18T14:48:30;101317.91;;;25.93;59.32
68230;BME280;55048;52.220;5.160;2022-08-18T14:50:56;101304.50;;;25.80;59.24
68230;BME280;55048;52.220;5.160;2022-08-18T14:53:26;101315.53;;;25.83;60.18
68230;BME280;55048;52.220;5.160;2022-08-18T14:55:53;101305.94;;;25.77;59.67
68230;BME280;55048;52.220;5.160;2022-08-18T14:58:21;101306.72;;;25.86;60.63
68230;BME280;55048;52.220;5.160;2022-08-18T15:00:51;101311.50;;;25.89;61.22
68230;BME280;55048;52.220;5.160;2022-08-18T15:03:16;101283.47;;;25.89;61.02
68230;BME280;55048;52.220;5.160;2022-08-18T15:05:41;101287.06;;;26.02;60.73
68230;BME280;55048;52.220;5.160;2022-08-18T15:08:07;101279.44;;;26.16;60.20
68230;BME280;55048;52.220;5.160;2022-08-18T15:10:34;101242.94;;;26.08;60.32
68230;BME280;55048;52.220;5.160;2022-08-18T15:12:59;101272.72;;;26.34;59.72